Time,TemperatureF,DewpointF,PressureIn,WindDirection,WindDirectionDegrees,WindSpeedMPH,WindSpeedGustMPH,Humidity,HourlyPrecipIn,Conditions,Clouds,dailyrainin,SoftwareType,DateUTC
2013-09-21 00:05:00,49.8,49.3,30.02,South,175,0.0,1.0,98,0.00,,,0.00,Wunderground v.1.15,2013-09-21 04:05:00,
2013-09-21 00:10:00,49.6,49.1,30.03,South,175,0.0,1.0,98,0.00,,,0.00,Wunderground v.1.15,2013-09-21 04:10:00,
2013-09-21 00:15:00,49.5,49.0,30.02,South,175,0.0,1.0,98,0.00,,,0.00,Wunderground v.1.15,2013-09-21 04:15:00,
2013-09-21 00:25:00,49.2,48.7,30.02,South,175,0.0,1.0,98,0.00,,,0.00,Wunderground v.1.15,2013-09-21 04:25:00,
2013-09-21 00:30:00,49.2,48.7,30.02,South,175,0.0,1.0,98,0.00,,,0.00,Wunderground v.1.15,2013-09-21 04:30:00,
2013-09-21 00:35:00,49.1,48.6,30.02,South,175,0.0,1.0,98,0.00,,,0.00,Wunderground v.1.15,2013-09-21 04:35:00,
2013-09-21 00:45:00,48.9,48.4,30.02,South,175,0.0,1.0,98,0.00,,,0.00,Wunderground v.1.15,2013-09-21 04:45:00,
2013-09-21 00:50:00,48.9,48.4,30.02,South,175,0.0,1.0,98,0.00,,,0.00,Wunderground v.1.15,2013-09-21 04:50:00,
2013-09-21 00:55:00,48.8,48.3,30.02,South,175,0.0,1.0,98,0.00,,,0.00,Wunderground v.1.15,2013-09-21 04:55:00,
2013-09-21 01:05:00,48.6,48.3,30.03,South,175,0.0,1.0,99,0.00,,,0.00,Wunderground v.1.15,2013-09-21 05:05:00,
2013-09-21 01:10:00,48.6,48.3,30.03,South,175,0.0,0.0,99,0.00,,,0.00,Wunderground v.1.15,2013-09-21 05:10:00,
2013-09-21 01:15:00,48.5,48.2,30.03,South,175,0.0,0.0,99,0.00,,,0.00,Wunderground v.1.15,2013-09-21 05:15:00,
2013-09-21 01:20:00,48.5,48.2,30.03,South,175,0.0,0.0,99,0.00,,,0.00,Wunderground v.1.15,2013-09-21 05:20:00,
2013-09-21 01:25:00,48.5,48.2,30.03,South,175,0.0,0.0,99,0.00,,,0.00,Wunderground v.1.15,2013-09-21 05:25:00,
2013-09-21 01:30:00,48.5,48.2,30.03,South,175,0.0,0.0,99,0.00,,,0.00,Wunderground v.1.15,2013-09-21 05:30:00,
2013-09-21 01:35:00,48.5,48.2,30.03,South,175,0.0,0.0,99,0.00,,,0.00,Wunderground v.1.15,2013-09-21 05:35:00,
2013-09-21 01:45:00,48.5,48.5,30.03,South,175,0.0,0.0,100,0.00,,,0.00,Wunderground v.1.15,2013-09-21 05:45:00,
2013-09-21 01:50:00,48.6,48.6,30.02,South,175,0.0,0.0,100,0.00,,,0.00,Wunderground v.1.15,2013-09-21 05:50:00,
2013-09-21 02:00:00,48.6,48.6,30.02,South,175,0.0,0.0,100,0.00,,,0.00,Wunderground v.1.15,2013-09-21 06:00:00,
2013-09-21 02:05:00,48.5,48.5,30.02,South,175,0.0,0.0,100,0.00,,,0.00,Wunderground v.1.15,2013-09-21 06:05:00,
2013-09-21 02:10:00,48.5,48.5,30.02,South,175,0.0,0.0,100,0.00,,,0.00,Wunderground v.1.15,2013-09-21 06:10:00,
2013-09-21 02:20:00,48.2,48.2,30.02,South,175,0.0,0.0,100,0.00,,,0.00,Wunderground v.1.15,2013-09-21 06:20:00,
2013-09-21 02:25:00,48.0,48.0,30.02,South,175,0.0,0.0,100,0.00,,,0.00,Wunderground v.1.15,2013-09-21 06:25:00,
2013-09-21 02:30:00,48.0,48.0,30.03,South,175,0.0,0.0,100,0.00,,,0.00,Wunderground v.1.15,2013-09-21 06:30:00,
2013-09-21 02:40:00,47.7,47.7,30.03,South,175,0.0,0.0,100,0.00,,,0.00,Wunderground v.1.15,2013-09-21 06:40:00,
2013-09-21 02:45:00,47.6,47.6,30.03,South,175,0.0,0.0,100,0.00,,,0.00,Wunderground v.1.15,2013-09-21 06:45:00,
2013-09-21 02:50:00,47.6,47.6,30.02,South,175,0.0,0.0,100,0.00,,,0.00,Wunderground v.1.15,2013-09-21 06:50:00,
2013-09-21 03:00:00,47.3,47.3,30.02,South,175,0.0,0.0,100,0.00,,,0.00,Wunderground v.1.15,2013-09-21 07:00:00,
2013-09-21 03:05:00,47.3,47.3,30.02,South,175,0.0,0.0,100,0.00,,,0.00,Wunderground v.1.15,2013-09-21 07:05:00,
2013-09-21 03:15:00,47.3,47.3,30.02,South,175,0.0,0.0,100,0.00,,,0.00,Wunderground v.1.15,2013-09-21 07:15:00,
2013-09-21 03:20:00,47.4,47.4,30.02,South,175,0.0,0.0,100,0.00,,,0.00,Wunderground v.1.15,2013-09-21 07:20:00,
2013-09-21 03:25:00,47.6,47.6,30.02,South,175,0.0,0.0,100,0.00,,,0.00,Wunderground v.1.15,2013-09-21 07:25:00,
2013-09-21 03:30:00,47.7,47.7,30.01,South,175,0.0,0.0,100,0.00,,,0.00,Wunderground v.1.15,2013-09-21 07:30:00,
2013-09-21 03:40:00,48.0,48.0,30.02,South,175,0.0,0.0,100,0.00,,,0.00,Wunderground v.1.15,2013-09-21 07:40:00,
2013-09-21 03:45:00,48.2,48.2,30.02,South,175,0.0,0.0,100,0.00,,,0.00,Wunderground v.1.15,2013-09-21 07:45:00,
2013-09-21 03:50:00,48.3,48.3,30.02,South,175,0.0,0.0,100,0.00,,,0.00,Wunderground v.1.15,2013-09-21 07:50:00,
2013-09-21 03:55:00,48.3,48.3,30.02,South,175,0.0,0.0,100,0.00,,,0.00,Wunderground v.1.15,2013-09-21 07:55:00,
2013-09-21 04:05:00,48.5,48.5,30.01,South,175,0.0,0.0,100,0.00,,,0.00,Wunderground v.1.15,2013-09-21 08:05:00,
2013-09-21 04:15:00,48.5,48.5,30.01,South,175,0.0,0.0,100,0.00,,,0.00,Wunderground v.1.15,2013-09-21 08:15:00,
2013-09-21 04:20:00,48.6,48.6,30.01,South,175,0.0,0.0,100,0.00,,,0.00,Wunderground v.1.15,2013-09-21 08:20:00,
2013-09-21 04:25:00,48.6,48.6,30.01,South,175,0.0,0.0,100,0.00,,,0.00,Wunderground v.1.15,2013-09-21 08:25:00,
2013-09-21 04:35:00,48.5,48.5,30.00,South,175,0.0,0.0,100,0.00,,,0.00,Wunderground v.1.15,2013-09-21 08:35:00,
2013-09-21 04:40:00,48.3,48.3,30.00,South,175,0.0,0.0,100,0.00,,,0.00,Wunderground v.1.15,2013-09-21 08:40:00,
2013-09-21 04:45:00,48.3,48.3,30.00,South,175,0.0,0.0,100,0.00,,,0.00,Wunderground v.1.15,2013-09-21 08:45:00,
2013-09-21 04:50:00,48.5,48.5,29.99,South,175,0.0,0.0,100,0.00,,,0.00,Wunderground v.1.15,2013-09-21 08:50:00,
2013-09-21 05:00:00,48.6,48.6,29.99,South,175,0.0,0.0,100,0.00,,,0.00,Wunderground v.1.15,2013-09-21 09:00:00,
2013-09-21 05:05:00,48.8,48.8,29.99,South,175,0.0,0.0,100,0.00,,,0.00,Wunderground v.1.15,2013-09-21 09:05:00,
2013-09-21 05:10:00,49.1,49.1,29.99,South,175,0.0,0.0,100,0.00,,,0.00,Wunderground v.1.15,2013-09-21 09:10:00,
2013-09-21 05:20:00,49.4,49.4,29.98,South,175,0.0,0.0,100,0.00,,,0.00,Wunderground v.1.15,2013-09-21 09:20:00,
2013-09-21 05:25:00,49.5,49.5,29.98,South,175,0.0,0.0,100,0.00,,,0.00,Wunderground v.1.15,2013-09-21 09:25:00,
2013-09-21 05:30:00,49.6,49.6,29.98,South,175,0.0,2.0,100,0.00,,,0.00,Wunderground v.1.15,2013-09-21 09:30:00,
2013-09-21 05:40:00,49.9,49.9,29.99,South,175,0.0,0.0,100,0.00,,,0.00,Wunderground v.1.15,2013-09-21 09:40:00,
2013-09-21 05:45:00,49.9,49.9,29.99,South,175,0.0,0.0,100,0.00,,,0.00,Wunderground v.1.15,2013-09-21 09:45:00,
2013-09-21 05:50:00,50.1,50.1,29.99,South,175,0.0,0.0,100,0.00,,,0.00,Wunderground v.1.15,2013-09-21 09:50:00,
2013-09-21 05:55:00,50.2,50.2,29.98,South,175,0.0,0.0,100,0.00,,,0.00,Wunderground v.1.15,2013-09-21 09:55:00,
2013-09-21 06:05:00,50.4,50.4,29.99,South,175,0.0,0.0,100,0.00,,,0.00,Wunderground v.1.15,2013-09-21 10:05:00,
2013-09-21 06:10:00,50.5,50.5,29.99,South,175,0.0,0.0,100,0.00,,,0.00,Wunderground v.1.15,2013-09-21 10:10:00,
2013-09-21 06:20:00,50.8,50.8,29.99,South,175,0.0,0.0,100,0.00,,,0.00,Wunderground v.1.15,2013-09-21 10:20:00,
2013-09-21 06:25:00,51.0,51.0,29.99,South,175,0.0,0.0,100,0.00,,,0.00,Wunderground v.1.15,2013-09-21 10:25:00,
2013-09-21 06:30:00,51.0,51.0,30.00,South,175,0.0,0.0,100,0.00,,,0.00,Wunderground v.1.15,2013-09-21 10:30:00,
2013-09-21 06:35:00,51.1,51.1,29.99,South,175,0.0,0.0,100,0.00,,,0.00,Wunderground v.1.15,2013-09-21 10:35:00,
2013-09-21 06:45:00,51.3,51.3,30.00,South,175,0.0,0.0,100,0.00,,,0.00,Wunderground v.1.15,2013-09-21 10:45:00,
2013-09-21 06:50:00,51.4,51.4,30.00,South,175,0.0,0.0,100,0.00,,,0.00,Wunderground v.1.15,2013-09-21 10:50:00,
2013-09-21 06:55:00,51.6,51.6,29.99,South,175,0.0,0.0,100,0.00,,,0.00,Wunderground v.1.15,2013-09-21 10:55:00,
2013-09-21 07:05:00,51.7,51.7,29.99,South,175,0.0,0.0,100,0.00,,,0.00,Wunderground v.1.15,2013-09-21 11:05:00,
2013-09-21 07:10:00,51.9,51.9,29.99,South,175,0.0,0.0,100,0.00,,,0.00,Wunderground v.1.15,2013-09-21 11:10:00,
2013-09-21 07:15:00,52.0,52.0,29.99,South,175,0.0,0.0,100,0.00,,,0.00,Wunderground v.1.15,2013-09-21 11:15:00,
2013-09-21 07:25:00,52.0,52.0,29.99,South,175,0.0,0.0,100,0.00,,,0.00,Wunderground v.1.15,2013-09-21 11:25:00,
2013-09-21 07:30:00,52.2,52.2,29.99,South,175,0.0,0.0,100,0.00,,,0.00,Wunderground v.1.15,2013-09-21 11:30:00,
2013-09-21 07:40:00,52.3,52.3,29.99,West,267,0.0,0.0,100,0.00,,,0.00,Wunderground v.1.15,2013-09-21 11:40:00,
2013-09-21 07:45:00,52.5,52.5,29.98,West,267,0.0,0.0,100,0.00,,,0.00,Wunderground v.1.15,2013-09-21 11:45:00,
2013-09-21 07:55:00,52.9,52.9,29.97,SSW,194,0.0,0.0,100,0.00,,,0.00,Wunderground v.1.15,2013-09-21 11:55:00,
2013-09-21 08:00:00,53.2,53.2,29.97,SSW,194,0.0,0.0,100,0.00,,,0.00,Wunderground v.1.15,2013-09-21 12:00:00,
2013-09-21 08:10:00,54.1,54.1,29.97,SSE,167,1.0,1.0,100,0.00,,,0.00,Wunderground v.1.15,2013-09-21 12:10:00,
2013-09-21 08:15:00,54.4,54.4,29.97,WSW,240,1.0,4.0,100,0.00,,,0.00,Wunderground v.1.15,2013-09-21 12:15:00,
2013-09-21 08:20:00,54.8,54.8,29.97,SSW,200,0.0,5.0,100,0.00,,,0.00,Wunderground v.1.15,2013-09-21 12:20:00,
2013-09-21 08:30:00,55.7,55.7,29.97,ESE,107,1.0,1.0,100,0.00,,,0.00,Wunderground v.1.15,2013-09-21 12:30:00,
2013-09-21 08:35:00,56.2,56.2,29.97,ESE,116,1.0,3.0,100,0.00,,,0.00,Wunderground v.1.15,2013-09-21 12:35:00,
2013-09-21 08:40:00,56.6,56.6,29.98,SSE,148,1.0,4.0,100,0.00,,,0.00,Wunderground v.1.15,2013-09-21 12:40:00,
2013-09-21 08:50:00,57.0,57.0,29.97,SW,230,1.0,4.0,100,0.00,,,0.00,Wunderground v.1.15,2013-09-21 12:50:00,
2013-09-21 08:55:00,57.0,57.0,29.97,West,277,1.0,4.0,100,0.00,,,0.00,Wunderground v.1.15,2013-09-21 12:55:00,
2013-09-21 09:00:00,57.2,57.2,29.97,South,173,1.0,4.0,100,0.00,,,0.00,Wunderground v.1.15,2013-09-21 13:00:00,
2013-09-21 09:10:00,57.6,57.6,29.97,SSE,155,1.0,7.0,100,0.00,,,0.00,Wunderground v.1.15,2013-09-21 13:10:00,
2013-09-21 09:15:00,58.0,57.7,29.97,SSW,194,1.0,7.0,99,0.00,,,0.00,Wunderground v.1.15,2013-09-21 13:15:00,
2013-09-21 09:20:00,58.4,57.0,29.96,WSW,245,2.0,2.0,95,0.00,,,0.00,Wunderground v.1.15,2013-09-21 13:20:00,
2013-09-21 09:30:00,59.2,56.9,29.96,East,94,3.0,7.0,92,0.00,,,0.00,Wunderground v.1.15,2013-09-21 13:30:00,
2013-09-21 09:35:00,59.6,56.7,29.95,SSE,160,3.0,7.0,90,0.00,,,0.00,Wunderground v.1.15,2013-09-21 13:35:00,
2013-09-21 09:40:00,60.2,56.6,29.95,ESE,111,2.0,7.0,88,0.00,,,0.00,Wunderground v.1.15,2013-09-21 13:40:00,
2013-09-21 09:45:00,60.5,56.3,29.95,WNW,300,2.0,7.0,86,0.00,,,0.00,Wunderground v.1.15,2013-09-21 13:45:00,
2013-09-21 09:55:00,60.9,57.0,29.95,SSW,211,2.0,5.0,87,0.00,,,0.00,Wunderground v.1.15,2013-09-21 13:55:00,
2013-09-21 10:00:00,61.0,56.5,29.94,SSW,205,1.0,1.0,85,0.00,,,0.00,Wunderground v.1.15,2013-09-21 14:00:00,
2013-09-21 10:10:00,61.8,56.2,29.94,East,90,2.0,2.0,82,0.00,,,0.00,Wunderground v.1.15,2013-09-21 14:10:00,
2013-09-21 10:15:00,62.3,57.1,29.94,SW,218,1.0,3.0,83,0.00,,,0.00,Wunderground v.1.15,2013-09-21 14:15:00,
2013-09-21 10:20:00,62.7,56.4,29.94,SSW,198,2.0,10.0,80,0.00,,,0.00,Wunderground v.1.15,2013-09-21 14:20:00,
2013-09-21 10:25:00,63.1,56.5,29.93,South,184,2.0,10.0,79,0.00,,,0.00,Wunderground v.1.15,2013-09-21 14:25:00,
2013-09-21 10:35:00,63.7,56.4,29.93,WSW,242,2.0,10.0,77,0.00,,,0.00,Wunderground v.1.15,2013-09-21 14:35:00,
2013-09-21 10:40:00,64.0,57.4,29.93,WNW,297,1.0,1.0,79,0.00,,,0.00,Wunderground v.1.15,2013-09-21 14:40:00,
2013-09-21 10:45:00,64.2,56.1,29.92,SE,134,1.0,2.0,75,0.00,,,0.00,Wunderground v.1.15,2013-09-21 14:45:00,
2013-09-21 10:50:00,64.5,56.8,29.92,NNW,330,1.0,1.0,76,0.00,,,0.00,Wunderground v.1.15,2013-09-21 14:50:00,
2013-09-21 11:00:00,64.7,55.8,29.92,SE,126,2.0,2.0,73,0.00,,,0.00,Wunderground v.1.15,2013-09-21 15:00:00,
2013-09-21 11:05:00,64.7,55.5,29.91,SW,225,3.0,3.0,72,0.00,,,0.00,Wunderground v.1.15,2013-09-21 15:05:00,
2013-09-21 11:15:00,65.0,56.1,29.91,SW,222,2.0,4.0,73,0.00,,,0.00,Wunderground v.1.15,2013-09-21 15:15:00,
2013-09-21 11:20:00,65.0,55.4,29.91,ESE,104,2.0,2.0,71,0.00,,,0.00,Wunderground v.1.15,2013-09-21 15:20:00,
2013-09-21 11:25:00,65.5,56.6,29.90,WSW,238,2.0,3.0,73,0.00,,,0.00,Wunderground v.1.15,2013-09-21 15:25:00,
2013-09-21 11:30:00,65.8,56.5,29.90,SSE,168,3.0,3.0,72,0.00,,,0.00,Wunderground v.1.15,2013-09-21 15:30:00,
2013-09-21 11:35:00,66.1,56.8,29.90,East,98,2.0,6.0,72,0.00,,,0.00,Wunderground v.1.15,2013-09-21 15:35:00,
2013-09-21 11:45:00,66.6,57.7,29.89,SE,132,3.0,9.0,73,0.00,,,0.00,Wunderground v.1.15,2013-09-21 15:45:00,
2013-09-21 11:50:00,66.8,57.5,29.89,ESE,108,2.0,2.0,72,0.00,,,0.00,Wunderground v.1.15,2013-09-21 15:50:00,
2013-09-21 11:55:00,66.9,58.0,29.89,ENE,68,2.0,3.0,73,0.00,,,0.00,Wunderground v.1.15,2013-09-21 15:55:00,
2013-09-21 12:00:00,67.3,58.0,29.89,SW,220,3.0,3.0,72,0.00,,,0.00,Wunderground v.1.15,2013-09-21 16:00:00,
2013-09-21 12:10:00,67.8,57.3,29.88,SSW,212,4.0,4.0,69,0.00,,,0.00,Wunderground v.1.15,2013-09-21 16:10:00,
2013-09-21 12:15:00,68.1,57.9,29.88,SE,126,3.0,8.0,70,0.00,,,0.00,Wunderground v.1.15,2013-09-21 16:15:00,
2013-09-21 12:25:00,68.3,57.3,29.88,SSE,165,4.0,8.0,68,0.00,,,0.00,Wunderground v.1.15,2013-09-21 16:25:00,
2013-09-21 12:30:00,68.6,58.0,29.88,South,190,2.0,2.0,69,0.00,,,0.00,Wunderground v.1.15,2013-09-21 16:30:00,
2013-09-21 12:40:00,68.9,59.1,29.87,SSE,153,2.0,8.0,71,0.00,,,0.00,Wunderground v.1.15,2013-09-21 16:40:00,
2013-09-21 12:45:00,69.1,59.7,29.87,SSW,199,3.0,8.0,72,0.00,,,0.00,Wunderground v.1.15,2013-09-21 16:45:00,
2013-09-21 12:50:00,69.3,59.1,29.87,NNW,330,3.0,3.0,70,0.00,,,0.00,Wunderground v.1.15,2013-09-21 16:50:00,
2013-09-21 12:55:00,69.3,59.5,29.87,East,89,3.0,8.0,71,0.00,,,0.00,Wunderground v.1.15,2013-09-21 16:55:00,
2013-09-21 13:05:00,69.3,60.3,29.86,SE,146,3.0,12.0,73,0.00,,,0.00,Wunderground v.1.15,2013-09-21 17:05:00,
2013-09-21 13:10:00,69.3,60.3,29.86,SE,142,3.0,3.0,73,0.00,,,0.00,Wunderground v.1.15,2013-09-21 17:10:00,
2013-09-21 13:15:00,69.3,59.9,29.86,SSE,162,3.0,12.0,72,0.00,,,0.00,Wunderground v.1.15,2013-09-21 17:15:00,
2013-09-21 13:25:00,69.1,60.8,29.85,ESE,112,3.0,4.0,75,0.00,,,0.00,Wunderground v.1.15,2013-09-21 17:25:00,
2013-09-21 13:30:00,68.9,60.3,29.84,SE,144,2.0,2.0,74,0.00,,,0.00,Wunderground v.1.15,2013-09-21 17:30:00,
2013-09-21 13:35:00,68.9,61.0,29.84,SE,146,2.0,3.0,76,0.00,,,0.00,Wunderground v.1.15,2013-09-21 17:35:00,
2013-09-21 13:45:00,68.9,62.1,29.84,SE,129,2.0,12.0,79,0.00,,,0.00,Wunderground v.1.15,2013-09-21 17:45:00,
2013-09-21 13:50:00,68.8,60.6,29.83,East,88,1.0,12.0,75,0.00,,,0.00,Wunderground v.1.15,2013-09-21 17:50:00,
2013-09-21 13:55:00,68.8,61.7,29.83,ESE,102,2.0,12.0,78,0.00,,,0.00,Wunderground v.1.15,2013-09-21 17:55:00,
2013-09-21 14:05:00,68.8,61.7,29.83,SSE,163,2.0,12.0,78,0.00,,,0.00,Wunderground v.1.15,2013-09-21 18:05:00,
2013-09-21 14:10:00,68.9,62.1,29.82,ESE,110,2.0,2.0,79,0.00,,,0.00,Wunderground v.1.15,2013-09-21 18:10:00,
2013-09-21 14:20:00,69.1,61.9,29.82,SSE,153,1.0,10.0,78,0.00,,,0.00,Wunderground v.1.15,2013-09-21 18:20:00,
2013-09-21 14:25:00,69.1,62.7,29.82,SSE,153,1.0,10.0,80,0.00,,,0.00,Wunderground v.1.15,2013-09-21 18:25:00,
2013-09-21 14:30:00,69.1,62.7,29.82,ENE,59,2.0,2.0,80,0.00,,,0.00,Wunderground v.1.15,2013-09-21 18:30:00,
2013-09-21 14:35:00,69.1,62.3,29.81,South,171,3.0,4.0,79,0.00,,,0.00,Wunderground v.1.15,2013-09-21 18:35:00,
2013-09-21 14:45:00,68.8,62.4,29.81,SE,132,2.0,10.0,80,0.00,,,0.00,Wunderground v.1.15,2013-09-21 18:45:00,
2013-09-21 14:50:00,68.6,62.9,29.81,SE,138,2.0,2.0,82,0.00,,,0.00,Wunderground v.1.15,2013-09-21 18:50:00,
2013-09-21 15:00:00,68.6,62.2,29.80,WSW,252,2.0,10.0,80,0.00,,,0.00,Wunderground v.1.15,2013-09-21 19:00:00,
2013-09-21 15:05:00,68.8,63.1,29.80,ESE,122,1.0,10.0,82,0.00,,,0.00,Wunderground v.1.15,2013-09-21 19:05:00,
2013-09-21 15:10:00,68.9,62.8,29.80,ESE,114,1.0,1.0,81,0.00,,,0.00,Wunderground v.1.15,2013-09-21 19:10:00,
2013-09-21 15:20:00,68.9,62.8,29.79,SSE,147,1.0,8.0,81,0.00,,,0.00,Wunderground v.1.15,2013-09-21 19:20:00,
2013-09-21 15:25:00,68.9,62.5,29.79,ESE,123,1.0,8.0,80,0.00,,,0.00,Wunderground v.1.15,2013-09-21 19:25:00,
2013-09-21 15:30:00,68.6,62.9,29.79,SE,140,2.0,8.0,82,0.00,,,0.00,Wunderground v.1.15,2013-09-21 19:30:00,
2013-09-21 15:40:00,68.3,62.9,29.79,East,98,2.0,2.0,83,0.00,,,0.00,Wunderground v.1.15,2013-09-21 19:40:00,
2013-09-21 15:45:00,68.3,62.9,29.79,SSE,167,2.0,8.0,83,0.00,,,0.00,Wunderground v.1.15,2013-09-21 19:45:00,
2013-09-21 15:50:00,68.1,63.1,29.79,East,86,2.0,2.0,84,0.00,,,0.00,Wunderground v.1.15,2013-09-21 19:50:00,
2013-09-21 15:55:00,68.1,63.1,29.78,ESE,123,2.0,7.0,84,0.00,,,0.00,Wunderground v.1.15,2013-09-21 19:55:00,
2013-09-21 16:05:00,67.9,63.9,29.78,SE,127,2.0,11.0,87,0.00,,,0.01,Wunderground v.1.15,2013-09-21 20:05:00,
2013-09-21 16:10:00,67.4,63.7,29.78,SSE,153,1.0,11.0,88,0.00,,,0.01,Wunderground v.1.15,2013-09-21 20:10:00,
2013-09-21 16:20:00,66.9,63.6,29.78,SSW,194,2.0,11.0,89,0.00,,,0.01,Wunderground v.1.15,2013-09-21 20:20:00,
2013-09-21 16:25:00,66.8,63.8,29.77,WSW,255,2.0,11.0,90,0.00,,,0.01,Wunderground v.1.15,2013-09-21 20:25:00,
2013-09-21 16:30:00,66.8,64.1,29.77,ESE,119,2.0,11.0,91,0.00,,,0.01,Wunderground v.1.15,2013-09-21 20:30:00,
2013-09-21 16:40:00,66.9,63.9,29.77,ESE,118,1.0,11.0,90,0.00,,,0.01,Wunderground v.1.15,2013-09-21 20:40:00,
2013-09-21 16:45:00,67.1,64.1,29.77,NE,49,2.0,11.0,90,0.00,,,0.01,Wunderground v.1.15,2013-09-21 20:45:00,
2013-09-21 16:50:00,67.1,63.4,29.77,East,94,2.0,11.0,88,0.00,,,0.01,Wunderground v.1.15,2013-09-21 20:50:00,
2013-09-21 17:00:00,67.4,63.4,29.77,SSW,198,3.0,3.0,87,0.00,,,0.01,Wunderground v.1.15,2013-09-21 21:00:00,
2013-09-21 17:05:00,67.4,63.1,29.77,WNW,303,2.0,9.0,86,0.00,,,0.01,Wunderground v.1.15,2013-09-21 21:05:00,
2013-09-21 17:10:00,67.4,63.4,29.77,SE,142,2.0,9.0,87,0.00,,,0.01,Wunderground v.1.15,2013-09-21 21:10:00,
2013-09-21 17:20:00,67.4,63.1,29.77,ESE,119,3.0,3.0,86,0.00,,,0.01,Wunderground v.1.15,2013-09-21 21:20:00,
2013-09-21 17:25:00,67.6,62.9,29.77,South,185,3.0,6.0,85,0.00,,,0.01,Wunderground v.1.15,2013-09-21 21:25:00,
2013-09-21 17:30:00,67.8,62.8,29.76,SSE,150,4.0,4.0,84,0.00,,,0.01,Wunderground v.1.15,2013-09-21 21:30:00,
2013-09-21 17:35:00,67.8,63.5,29.76,NW,311,3.0,9.0,86,0.00,,,0.01,Wunderground v.1.15,2013-09-21 21:35:00,
2013-09-21 17:45:00,67.8,63.1,29.76,East,96,3.0,9.0,85,0.00,,,0.01,Wunderground v.1.15,2013-09-21 21:45:00,
2013-09-21 17:50:00,67.6,63.3,29.76,SW,223,3.0,9.0,86,0.00,,,0.01,Wunderground v.1.15,2013-09-21 21:50:00,
2013-09-21 18:00:00,67.4,63.4,29.76,SSE,152,2.0,2.0,87,0.00,,,0.01,Wunderground v.1.15,2013-09-21 22:00:00,
2013-09-21 18:05:00,67.3,63.0,29.76,ESE,105,3.0,5.0,86,0.00,,,0.01,Wunderground v.1.15,2013-09-21 22:05:00,
2013-09-21 18:15:00,67.3,63.0,29.75,SSW,194,3.0,14.0,86,0.00,,,0.01,Wunderground v.1.15,2013-09-21 22:15:00,
2013-09-21 18:20:00,67.4,62.7,29.75,SSE,147,3.0,3.0,85,0.00,,,0.01,Wunderground v.1.15,2013-09-21 22:20:00,
2013-09-21 18:25:00,67.4,63.1,29.75,SSE,155,2.0,14.0,86,0.00,,,0.01,Wunderground v.1.15,2013-09-21 22:25:00,
2013-09-21 18:30:00,67.3,63.0,29.75,SSE,154,1.0,14.0,86,0.00,,,0.01,Wunderground v.1.15,2013-09-21 22:30:00,
2013-09-21 18:40:00,66.9,62.9,29.75,South,183,2.0,2.0,87,0.00,,,0.01,Wunderground v.1.15,2013-09-21 22:40:00,
2013-09-21 18:45:00,66.9,62.9,29.74,East,86,2.0,14.0,87,0.00,,,0.01,Wunderground v.1.15,2013-09-21 22:45:00,
2013-09-21 18:50:00,66.9,62.9,29.75,SE,126,1.0,14.0,87,0.00,,,0.01,Wunderground v.1.15,2013-09-21 22:50:00,
2013-09-21 18:55:00,66.9,62.9,29.75,SSW,201,2.0,14.0,87,0.00,,,0.01,Wunderground v.1.15,2013-09-21 22:55:00,
2013-09-21 19:05:00,66.8,62.8,29.74,South,183,2.0,6.0,87,0.00,,,0.01,Wunderground v.1.15,2013-09-21 23:05:00,
2013-09-21 19:10:00,66.6,62.9,29.75,East,90,1.0,6.0,88,0.00,,,0.01,Wunderground v.1.15,2013-09-21 23:10:00,
2013-09-21 19:20:00,66.8,62.5,29.74,ESE,103,1.0,1.0,86,0.00,,,0.01,Wunderground v.1.15,2013-09-21 23:20:00,
2013-09-21 19:25:00,66.6,62.6,29.75,SE,135,1.0,6.0,87,0.00,,,0.01,Wunderground v.1.15,2013-09-21 23:25:00,
2013-09-21 19:30:00,66.6,62.3,29.74,ESE,105,2.0,2.0,86,0.00,,,0.01,Wunderground v.1.15,2013-09-21 23:30:00,
2013-09-21 19:40:00,66.6,61.9,29.74,SE,143,3.0,6.0,85,0.00,,,0.01,Wunderground v.1.15,2013-09-21 23:40:00,
2013-09-21 19:45:00,66.6,61.9,29.74,East,83,3.0,6.0,85,0.00,,,0.01,Wunderground v.1.15,2013-09-21 23:45:00,
2013-09-21 19:50:00,66.8,62.1,29.74,East,91,3.0,3.0,85,0.00,,,0.01,Wunderground v.1.15,2013-09-21 23:50:00,
2013-09-21 20:00:00,66.6,61.9,29.74,East,98,3.0,6.0,85,0.00,,,0.01,Wunderground v.1.15,2013-09-22 00:00:00,
2013-09-21 20:05:00,66.6,61.9,29.74,SW,228,2.0,9.0,85,0.00,,,0.01,Wunderground v.1.15,2013-09-22 00:05:00,
2013-09-21 20:10:00,66.4,62.1,29.74,SW,225,2.0,2.0,86,0.00,,,0.01,Wunderground v.1.15,2013-09-22 00:10:00,
2013-09-21 20:20:00,66.6,61.9,29.73,SE,125,1.0,9.0,85,0.00,,,0.01,Wunderground v.1.15,2013-09-22 00:20:00,
2013-09-21 20:25:00,66.8,61.8,29.73,SE,144,2.0,9.0,84,0.00,,,0.01,Wunderground v.1.15,2013-09-22 00:25:00,
2013-09-21 20:30:00,66.9,61.9,29.73,SSW,207,2.0,2.0,84,0.00,,,0.01,Wunderground v.1.15,2013-09-22 00:30:00,
2013-09-21 20:40:00,66.9,61.9,29.73,ESE,122,3.0,3.0,84,0.00,,,0.01,Wunderground v.1.15,2013-09-22 00:40:00,
2013-09-21 20:45:00,66.8,62.1,29.73,ESE,119,2.0,9.0,85,0.00,,,0.01,Wunderground v.1.15,2013-09-22 00:45:00,
2013-09-21 20:50:00,66.6,61.6,29.73,East,98,2.0,2.0,84,0.00,,,0.01,Wunderground v.1.15,2013-09-22 00:50:00,
2013-09-21 21:00:00,66.4,61.8,29.73,East,87,2.0,2.0,85,0.00,,,0.01,Wunderground v.1.15,2013-09-22 01:00:00,
2013-09-21 21:05:00,66.4,61.8,29.72,East,84,2.0,3.0,85,0.00,,,0.01,Wunderground v.1.15,2013-09-22 01:05:00,
2013-09-21 21:15:00,66.3,62.0,29.72,SE,124,1.0,4.0,86,0.00,,,0.01,Wunderground v.1.15,2013-09-22 01:15:00,
2013-09-21 21:20:00,66.3,62.0,29.72,SSW,207,2.0,2.0,86,0.00,,,0.01,Wunderground v.1.15,2013-09-22 01:20:00,
2013-09-21 21:25:00,66.4,61.8,29.72,ESE,119,3.0,4.0,85,0.00,,,0.01,Wunderground v.1.15,2013-09-22 01:25:00,
2013-09-21 21:30:00,66.8,62.1,29.72,East,79,4.0,8.0,85,0.00,,,0.01,Wunderground v.1.15,2013-09-22 01:30:00,
2013-09-21 21:40:00,67.1,62.1,29.71,South,169,4.0,4.0,84,0.00,,,0.01,Wunderground v.1.15,2013-09-22 01:40:00,
2013-09-21 21:45:00,67.3,62.3,29.71,SW,227,4.0,8.0,84,0.00,,,0.01,Wunderground v.1.15,2013-09-22 01:45:00,
2013-09-21 21:50:00,67.3,62.3,29.71,West,260,4.0,4.0,84,0.00,,,0.01,Wunderground v.1.15,2013-09-22 01:50:00,
2013-09-21 21:55:00,67.1,62.4,29.71,SW,225,3.0,8.0,85,0.00,,,0.01,Wunderground v.1.15,2013-09-22 01:55:00,
2013-09-21 22:05:00,67.3,62.6,29.71,SE,126,4.0,10.0,85,0.00,,,0.01,Wunderground v.1.15,2013-09-22 02:05:00,
2013-09-21 22:10:00,67.1,62.4,29.70,SE,124,3.0,10.0,85,0.00,,,0.01,Wunderground v.1.15,2013-09-22 02:10:00,
2013-09-21 22:20:00,67.3,62.3,29.71,ESE,115,2.0,2.0,84,0.00,,,0.01,Wunderground v.1.15,2013-09-22 02:20:00,
2013-09-21 22:25:00,67.3,62.6,29.70,West,280,2.0,10.0,85,0.00,,,0.01,Wunderground v.1.15,2013-09-22 02:25:00,
2013-09-21 22:35:00,67.3,62.3,29.70,SW,219,3.0,10.0,84,0.00,,,0.01,Wunderground v.1.15,2013-09-22 02:35:00,
2013-09-21 22:40:00,67.4,62.7,29.70,SE,134,3.0,3.0,85,0.00,,,0.01,Wunderground v.1.15,2013-09-22 02:40:00,
2013-09-21 22:45:00,67.4,62.4,29.70,ESE,103,2.0,10.0,84,0.00,,,0.01,Wunderground v.1.15,2013-09-22 02:45:00,
2013-09-21 22:50:00,67.4,62.7,29.70,ESE,102,2.0,10.0,85,0.00,,,0.01,Wunderground v.1.15,2013-09-22 02:50:00,
2013-09-21 23:00:00,67.4,62.7,29.69,South,173,3.0,10.0,85,0.00,,,0.01,Wunderground v.1.15,2013-09-22 03:00:00,
2013-09-21 23:05:00,67.4,62.7,29.69,SE,144,3.0,13.0,85,0.00,,,0.01,Wunderground v.1.15,2013-09-22 03:05:00,
2013-09-21 23:10:00,67.4,62.7,29.69,SE,137,3.0,3.0,85,0.00,,,0.01,Wunderground v.1.15,2013-09-22 03:10:00,
2013-09-21 23:20:00,67.3,63.0,29.68,SE,143,2.0,13.0,86,0.00,,,0.01,Wunderground v.1.15,2013-09-22 03:20:00,
2013-09-21 23:25:00,67.1,62.8,29.68,South,189,2.0,13.0,86,0.00,,,0.01,Wunderground v.1.15,2013-09-22 03:25:00,
2013-09-21 23:30:00,67.1,62.4,29.68,SSW,212,3.0,13.0,85,0.00,,,0.01,Wunderground v.1.15,2013-09-22 03:30:00,
2013-09-21 23:40:00,67.1,63.1,29.68,SE,134,3.0,3.0,87,0.00,,,0.01,Wunderground v.1.15,2013-09-22 03:40:00,
2013-09-21 23:45:00,67.1,63.1,29.67,West,275,2.0,13.0,87,0.00,,,0.01,Wunderground v.1.15,2013-09-22 03:45:00,
2013-09-21 23:50:00,67.1,63.1,29.67,East,101,2.0,13.0,87,0.00,,,0.01,Wunderground v.1.15,2013-09-22 03:50:00,